createdAt,value
2018-11-03T00:00:25.275Z,0
2018-11-03T00:00:57.360Z,0
2018-11-03T00:01:29.435Z,0
2018-11-03T00:02:01.515Z,0
2018-11-03T00:02:33.608Z,0
2018-11-03T00:03:05.725Z,0
2018-11-03T00:03:37.790Z,0
2018-11-03T00:04:09.862Z,0
2018-11-03T00:04:41.942Z,0
2018-11-03T00:05:14.017Z,0
2018-11-03T00:05:46.096Z,0
2018-11-03T00:06:18.180Z,0
2018-11-03T00:06:50.507Z,0
2018-11-03T00:07:22.783Z,0
2018-11-03T00:07:55.111Z,0
2018-11-03T00:08:27.305Z,0
2018-11-03T00:08:59.497Z,0
2018-11-03T00:09:31.603Z,0
2018-11-03T00:10:03.679Z,0
2018-11-03T00:10:35.758Z,0
2018-11-03T00:11:07.836Z,0
2018-11-03T00:11:39.919Z,0
2018-11-03T00:12:12.006Z,0
2018-11-03T00:12:44.487Z,0
2018-11-03T00:13:16.567Z,0
2018-11-03T00:13:48.653Z,0
2018-11-03T00:14:20.733Z,0
2018-11-03T00:14:52.805Z,0
2018-11-03T00:15:24.877Z,0
2018-11-03T00:15:56.945Z,0
2018-11-03T00:16:29.027Z,0
2018-11-03T00:17:01.084Z,0
2018-11-03T00:17:33.181Z,0
2018-11-03T00:18:05.249Z,0
2018-11-03T00:18:37.354Z,0
2018-11-03T00:19:09.380Z,0
2018-11-03T00:19:41.458Z,0
2018-11-03T00:20:13.547Z,0
2018-11-03T00:20:45.622Z,0
2018-11-03T00:21:17.694Z,0
2018-11-03T00:21:49.766Z,0
2018-11-03T00:22:21.845Z,0
2018-11-03T00:22:53.934Z,0
2018-11-03T00:23:26.005Z,0
2018-11-03T00:23:58.072Z,0
2018-11-03T00:24:30.170Z,0
2018-11-03T00:25:02.250Z,0
2018-11-03T00:25:34.555Z,0
2018-11-03T00:26:06.616Z,0
2018-11-03T00:26:38.699Z,0
2018-11-03T00:27:10.797Z,0
2018-11-03T00:27:42.869Z,0
2018-11-03T00:28:14.947Z,0
2018-11-03T00:28:47.027Z,0
2018-11-03T00:29:19.126Z,0
2018-11-03T00:29:51.200Z,0
2018-11-03T00:30:23.292Z,0
2018-11-03T00:30:55.383Z,0
2018-11-03T00:31:27.443Z,0
2018-11-03T00:31:59.503Z,0
2018-11-03T00:32:31.587Z,0
2018-11-03T00:33:03.680Z,0
2018-11-03T00:33:35.737Z,0
2018-11-03T00:34:07.821Z,0
2018-11-03T00:34:39.876Z,0
2018-11-03T00:35:11.957Z,0
2018-11-03T00:35:44.043Z,0
2018-11-03T00:36:16.123Z,0
2018-11-03T00:36:48.221Z,0
2018-11-03T00:37:20.326Z,0
2018-11-03T00:37:52.411Z,0
2018-11-03T00:38:24.490Z,0
2018-11-03T00:38:56.566Z,0
2018-11-03T00:39:28.639Z,0
2018-11-03T00:40:00.736Z,0
2018-11-03T00:40:32.954Z,0
2018-11-03T00:41:04.997Z,0
2018-11-03T00:41:37.097Z,0
2018-11-03T00:42:09.182Z,0
2018-11-03T00:42:41.262Z,0
2018-11-03T00:43:13.327Z,0
2018-11-03T00:43:45.396Z,0
2018-11-03T00:44:17.478Z,0
2018-11-03T00:44:49.572Z,0
2018-11-03T00:45:21.655Z,0
2018-11-03T00:45:53.728Z,0
2018-11-03T00:46:25.815Z,0
2018-11-03T00:46:57.900Z,0
2018-11-03T00:47:29.974Z,0
2018-11-03T00:48:02.050Z,0
2018-11-03T00:48:34.115Z,0
2018-11-03T00:49:06.191Z,0
2018-11-03T00:49:38.261Z,0
2018-11-03T00:50:10.321Z,0
2018-11-03T00:50:42.399Z,0
2018-11-03T00:51:14.497Z,0
2018-11-03T00:51:46.576Z,0
2018-11-03T00:52:18.648Z,0
2018-11-03T00:52:50.727Z,0
2018-11-03T00:53:22.803Z,0
2018-11-03T00:53:54.907Z,0
2018-11-03T00:54:27.205Z,0
2018-11-03T00:54:59.288Z,0
2018-11-03T00:55:31.345Z,0
2018-11-03T00:56:03.432Z,0
2018-11-03T00:56:35.503Z,0
2018-11-03T00:57:07.576Z,0
2018-11-03T00:57:39.624Z,0
2018-11-03T00:58:11.716Z,0
2018-11-03T00:58:43.789Z,0
2018-11-03T00:59:15.871Z,0
2018-11-03T00:59:47.947Z,0
2018-11-03T01:00:20.033Z,0
2018-11-03T01:00:52.131Z,0
2018-11-03T01:01:24.221Z,0
2018-11-03T01:01:56.286Z,0
2018-11-03T01:02:28.367Z,0
2018-11-03T01:03:00.445Z,0
2018-11-03T01:03:32.520Z,0
2018-11-03T01:04:04.609Z,0
2018-11-03T01:04:36.686Z,0
2018-11-03T01:05:08.766Z,0
2018-11-03T01:05:40.905Z,0
2018-11-03T01:06:12.994Z,0
2018-11-03T01:06:45.100Z,0
2018-11-03T01:07:17.159Z,0
2018-11-03T01:07:49.223Z,0
2018-11-03T01:08:21.316Z,0
2018-11-03T01:08:53.384Z,0
2018-11-03T01:09:25.450Z,0
2018-11-03T01:09:57.822Z,0
2018-11-03T01:10:29.917Z,0
2018-11-03T01:11:01.969Z,0
2018-11-03T01:11:34.046Z,0
2018-11-03T01:12:06.147Z,0
2018-11-03T01:12:38.241Z,0
2018-11-03T01:13:10.304Z,0
2018-11-03T01:13:42.396Z,0
2018-11-03T01:14:14.452Z,0
2018-11-03T01:14:46.543Z,0
2018-11-03T01:15:18.639Z,0
2018-11-03T01:15:50.726Z,0
2018-11-03T01:16:22.829Z,0
2018-11-03T01:16:54.915Z,0
2018-11-03T01:17:26.981Z,0
2018-11-03T01:17:59.058Z,0
2018-11-03T01:18:31.149Z,0
2018-11-03T01:19:03.237Z,0
2018-11-03T01:19:35.319Z,0
2018-11-03T01:20:07.403Z,0
2018-11-03T01:20:39.480Z,0
2018-11-03T01:21:11.568Z,0
2018-11-03T01:21:43.659Z,0
2018-11-03T01:22:16.004Z,0
2018-11-03T01:22:48.098Z,0
2018-11-03T01:23:20.209Z,0
2018-11-03T01:23:52.365Z,0
2018-11-03T01:24:24.535Z,0
2018-11-03T01:24:56.593Z,0
2018-11-03T01:25:28.666Z,0
2018-11-03T01:26:00.747Z,0
2018-11-03T01:26:32.819Z,0
2018-11-03T01:27:04.932Z,0
2018-11-03T01:27:36.972Z,0
2018-11-03T01:28:09.047Z,0
2018-11-03T01:28:41.117Z,0
2018-11-03T01:29:13.198Z,0
2018-11-03T01:29:45.286Z,0
2018-11-03T01:30:17.343Z,0
2018-11-03T01:30:49.399Z,0
2018-11-03T01:31:21.474Z,0
2018-11-03T01:31:53.546Z,0
2018-11-03T01:32:25.829Z,0
2018-11-03T01:32:57.844Z,0
2018-11-03T01:33:29.908Z,0
2018-11-03T01:34:01.982Z,0
2018-11-03T01:34:34.056Z,0
2018-11-03T01:35:06.161Z,0
2018-11-03T01:35:38.252Z,0
2018-11-03T01:36:10.329Z,0
2018-11-03T01:36:42.418Z,0
2018-11-03T01:37:14.502Z,0
2018-11-03T01:37:46.564Z,0
2018-11-03T01:38:18.635Z,0
2018-11-03T01:38:51.632Z,0
2018-11-03T01:39:23.708Z,0
2018-11-03T01:39:55.788Z,0
2018-11-03T01:40:27.864Z,0
2018-11-03T01:40:59.932Z,0
2018-11-03T01:41:32.005Z,0
2018-11-03T01:42:04.084Z,0
2018-11-03T01:42:36.151Z,0
2018-11-03T01:43:08.225Z,0
2018-11-03T01:43:40.308Z,0
2018-11-03T01:44:12.383Z,0
2018-11-03T01:44:44.465Z,0
2018-11-03T01:45:16.550Z,0
2018-11-03T01:45:48.647Z,0
2018-11-03T01:46:20.752Z,0
2018-11-03T01:46:52.827Z,0
2018-11-03T01:47:24.900Z,0
2018-11-03T01:47:56.962Z,0
2018-11-03T01:48:29.050Z,0
2018-11-03T01:49:01.134Z,0
2018-11-03T01:49:33.195Z,0
2018-11-03T01:50:05.276Z,0
2018-11-03T01:50:37.359Z,0
2018-11-03T01:51:09.424Z,0
2018-11-03T01:51:41.719Z,0
2018-11-03T01:52:13.792Z,0
2018-11-03T01:52:46.205Z,0
2018-11-03T01:53:18.270Z,0
2018-11-03T01:53:50.364Z,0
2018-11-03T01:54:22.446Z,0
2018-11-03T01:54:54.537Z,0
2018-11-03T01:55:26.613Z,0
2018-11-03T01:55:58.683Z,0
2018-11-03T01:56:30.744Z,0
2018-11-03T01:57:02.801Z,0
2018-11-03T01:57:34.890Z,0
2018-11-03T01:58:06.954Z,0
2018-11-03T01:58:39.035Z,0
2018-11-03T01:59:11.110Z,0
2018-11-03T01:59:43.182Z,0
2018-11-03T02:00:15.239Z,0
2018-11-03T02:00:47.332Z,0
2018-11-03T02:01:19.400Z,0
2018-11-03T02:01:51.474Z,0
2018-11-03T02:02:23.567Z,0
2018-11-03T02:02:55.635Z,0
2018-11-03T02:03:27.695Z,0
2018-11-03T02:03:59.761Z,0
2018-11-03T02:04:31.823Z,0
2018-11-03T02:05:03.860Z,0
2018-11-03T02:05:35.939Z,0
2018-11-03T02:06:07.999Z,0
2018-11-03T02:06:40.106Z,0
2018-11-03T02:07:12.199Z,0
2018-11-03T02:07:44.286Z,0
2018-11-03T02:08:16.380Z,0
2018-11-03T02:08:50.127Z,0
2018-11-03T02:09:22.221Z,0
2018-11-03T02:09:54.305Z,0
2018-11-03T02:10:26.362Z,0
2018-11-03T02:10:58.458Z,0
2018-11-03T02:11:30.518Z,0
2018-11-03T02:12:02.619Z,0
2018-11-03T02:12:34.681Z,0
2018-11-03T02:13:06.775Z,0
2018-11-03T02:13:38.849Z,0
2018-11-03T02:14:10.936Z,0
2018-11-03T02:14:42.999Z,0
2018-11-03T02:15:15.115Z,0
2018-11-03T02:15:47.137Z,0
2018-11-03T02:16:19.226Z,0
2018-11-03T02:16:51.334Z,0
2018-11-03T02:17:23.375Z,0
2018-11-03T02:17:55.443Z,0
2018-11-03T02:18:27.513Z,0
2018-11-03T02:18:59.591Z,0
2018-11-03T02:19:31.682Z,0
2018-11-03T02:20:03.760Z,0
2018-11-03T02:20:35.839Z,0
2018-11-03T02:21:07.936Z,0
2018-11-03T02:21:40.020Z,0
2018-11-03T02:22:12.133Z,0
2018-11-03T02:22:44.217Z,0
2018-11-03T02:23:16.287Z,0
2018-11-03T02:23:48.358Z,0
2018-11-03T02:24:20.637Z,0
2018-11-03T02:24:52.709Z,0
2018-11-03T02:25:24.810Z,0
2018-11-03T02:25:56.863Z,0
2018-11-03T02:26:28.933Z,0
2018-11-03T02:27:01.005Z,0
2018-11-03T02:27:33.115Z,0
2018-11-03T02:28:05.183Z,0
2018-11-03T02:28:37.234Z,0
2018-11-03T02:29:09.321Z,0
2018-11-03T02:29:41.384Z,0
2018-11-03T02:30:13.462Z,0
2018-11-03T02:30:45.529Z,0
2018-11-03T02:31:17.618Z,0
2018-11-03T02:31:49.694Z,0
2018-11-03T02:32:21.803Z,0
2018-11-03T02:32:53.871Z,0
2018-11-03T02:33:25.974Z,0
2018-11-03T02:33:58.055Z,0
2018-11-03T02:34:30.128Z,0
2018-11-03T02:35:02.223Z,0
2018-11-03T02:35:34.293Z,0
2018-11-03T02:36:06.387Z,0
2018-11-03T02:36:38.444Z,0
2018-11-03T02:37:10.515Z,0
2018-11-03T02:37:42.593Z,0
2018-11-03T02:38:14.675Z,0
2018-11-03T02:38:46.730Z,0
2018-11-03T02:39:18.806Z,0
2018-11-03T02:39:50.884Z,0
2018-11-03T02:40:22.959Z,0
2018-11-03T02:40:55.061Z,0
2018-11-03T02:41:27.134Z,0
2018-11-03T02:41:59.229Z,0
2018-11-03T02:42:31.311Z,0
2018-11-03T02:43:03.382Z,0
2018-11-03T02:43:35.478Z,0
2018-11-03T02:44:07.512Z,0
2018-11-03T02:44:39.576Z,0
2018-11-03T02:45:11.642Z,0
2018-11-03T02:45:43.705Z,0
2018-11-03T02:46:15.799Z,0
2018-11-03T02:46:47.867Z,0
2018-11-03T02:47:19.941Z,0
2018-11-03T02:47:52.006Z,0
2018-11-03T02:48:24.091Z,0
2018-11-03T02:48:56.153Z,0
2018-11-03T02:49:28.232Z,0
2018-11-03T02:50:00.312Z,0
2018-11-03T02:50:32.393Z,0
2018-11-03T02:51:04.467Z,0
2018-11-03T02:51:36.554Z,0
2018-11-03T02:52:08.627Z,0
2018-11-03T02:52:40.698Z,0
2018-11-03T02:53:12.791Z,0
2018-11-03T02:53:44.944Z,0
2018-11-03T02:54:17.164Z,0
2018-11-03T02:54:49.253Z,0
2018-11-03T02:55:21.349Z,0
2018-11-03T02:55:53.419Z,0
2018-11-03T02:56:25.506Z,0
2018-11-03T02:56:57.587Z,0
2018-11-03T02:57:29.664Z,0
2018-11-03T02:58:01.746Z,0
2018-11-03T02:58:33.817Z,0
2018-11-03T02:59:05.893Z,0
2018-11-03T02:59:37.964Z,0
2018-11-03T03:00:10.061Z,0
2018-11-03T03:00:42.134Z,0
2018-11-03T03:01:14.197Z,0
2018-11-03T03:01:46.267Z,0
2018-11-03T03:02:18.358Z,0
2018-11-03T03:02:50.445Z,0
2018-11-03T03:03:22.511Z,0
2018-11-03T03:03:54.560Z,0
2018-11-03T03:04:26.612Z,0
2018-11-03T03:04:58.687Z,0
2018-11-03T03:05:30.808Z,0
2018-11-03T03:06:03.730Z,0
2018-11-03T03:06:35.814Z,0
2018-11-03T03:07:08.185Z,0
2018-11-03T03:07:40.250Z,0
2018-11-03T03:08:12.572Z,0
2018-11-03T03:08:44.655Z,0
2018-11-03T03:09:16.733Z,0
2018-11-03T03:09:48.811Z,0
2018-11-03T03:10:20.903Z,0
2018-11-03T03:10:53.002Z,0
2018-11-03T03:11:25.123Z,0
2018-11-03T03:11:57.173Z,0
2018-11-03T03:12:29.245Z,0
2018-11-03T03:13:01.335Z,0
2018-11-03T03:13:33.427Z,0
2018-11-03T03:14:05.495Z,0
2018-11-03T03:14:37.561Z,0
2018-11-03T03:15:09.638Z,0
2018-11-03T03:15:41.726Z,0
2018-11-03T03:16:13.815Z,0
2018-11-03T03:16:45.911Z,0
2018-11-03T03:17:17.995Z,0
2018-11-03T03:17:50.086Z,0
2018-11-03T03:18:22.182Z,0
2018-11-03T03:18:54.269Z,0
2018-11-03T03:19:26.349Z,0
2018-11-03T03:19:58.396Z,0
2018-11-03T03:20:30.476Z,0
2018-11-03T03:21:02.564Z,0
2018-11-03T03:21:34.852Z,0
2018-11-03T03:22:06.933Z,0
2018-11-03T03:22:39.016Z,0
2018-11-03T03:23:11.096Z,0
2018-11-03T03:23:43.184Z,0
2018-11-03T03:24:15.261Z,0
2018-11-03T03:24:47.348Z,0
2018-11-03T03:25:19.424Z,0
2018-11-03T03:25:51.512Z,0
2018-11-03T03:26:23.588Z,0
2018-11-03T03:26:55.668Z,0
2018-11-03T03:27:27.744Z,0
2018-11-03T03:27:59.823Z,0
2018-11-03T03:28:31.900Z,0
2018-11-03T03:29:04.106Z,0
2018-11-03T03:29:36.491Z,0
2018-11-03T03:30:08.471Z,0
2018-11-03T03:30:40.540Z,0
2018-11-03T03:31:12.624Z,0
2018-11-03T03:31:44.699Z,0
2018-11-03T03:32:16.848Z,0
2018-11-03T03:32:48.857Z,0
2018-11-03T03:33:20.929Z,0
2018-11-03T03:33:52.998Z,0
2018-11-03T03:34:25.075Z,0
2018-11-03T03:34:57.360Z,0
2018-11-03T03:35:29.450Z,0
2018-11-03T03:36:01.513Z,0
2018-11-03T03:36:33.596Z,0
2018-11-03T03:37:05.672Z,0
2018-11-03T03:37:37.764Z,0
2018-11-03T03:38:09.838Z,0
2018-11-03T03:38:41.933Z,0
2018-11-03T03:39:13.986Z,0
2018-11-03T03:39:46.065Z,0
2018-11-03T03:40:18.142Z,0
2018-11-03T03:40:50.222Z,0
2018-11-03T03:41:22.280Z,0
2018-11-03T03:41:54.356Z,0
2018-11-03T03:42:26.427Z,0
2018-11-03T03:42:58.521Z,0
2018-11-03T03:43:30.600Z,0
2018-11-03T03:44:02.675Z,0
2018-11-03T03:44:34.764Z,0
2018-11-03T03:45:06.844Z,0
2018-11-03T03:45:38.922Z,0
2018-11-03T03:46:11.007Z,0
2018-11-03T03:46:43.092Z,0
2018-11-03T03:47:15.167Z,0
2018-11-03T03:47:47.248Z,0
2018-11-03T03:48:19.341Z,0
2018-11-03T03:48:51.406Z,0
2018-11-03T03:49:23.636Z,0
2018-11-03T03:49:55.727Z,0
2018-11-03T03:50:27.787Z,0
2018-11-03T03:50:59.931Z,0
2018-11-03T03:51:31.991Z,0
2018-11-03T03:52:04.059Z,0
2018-11-03T03:52:36.132Z,0
2018-11-03T03:53:08.221Z,0
2018-11-03T03:53:40.284Z,0
2018-11-03T03:54:12.359Z,0
2018-11-03T03:54:44.438Z,0
2018-11-03T03:55:16.493Z,0
2018-11-03T03:55:48.582Z,0
2018-11-03T03:56:20.673Z,0
2018-11-03T03:56:52.754Z,0
2018-11-03T03:57:24.839Z,0
2018-11-03T03:57:56.929Z,0
2018-11-03T03:58:29.009Z,0
2018-11-03T03:59:01.093Z,0
2018-11-03T03:59:33.168Z,0
2018-11-03T04:00:05.237Z,0
2018-11-03T04:00:37.337Z,0
2018-11-03T04:01:09.397Z,0
2018-11-03T04:01:41.484Z,0
2018-11-03T04:02:13.573Z,0
2018-11-03T04:02:45.670Z,0
2018-11-03T04:03:17.730Z,0
2018-11-03T04:03:49.799Z,0
2018-11-03T04:04:21.880Z,0
2018-11-03T04:04:53.981Z,0
2018-11-03T04:05:26.054Z,0
2018-11-03T04:05:58.124Z,0
2018-11-03T04:06:30.183Z,0
2018-11-03T04:07:02.264Z,0
2018-11-03T04:07:34.351Z,0
2018-11-03T04:08:06.439Z,0
2018-11-03T04:08:38.491Z,0
2018-11-03T04:09:10.589Z,0
2018-11-03T04:09:42.666Z,0
2018-11-03T04:10:14.744Z,0
2018-11-03T04:10:46.818Z,0
2018-11-03T04:11:18.890Z,0
2018-11-03T04:11:50.979Z,0
2018-11-03T04:12:23.060Z,0
2018-11-03T04:12:55.108Z,0
2018-11-03T04:13:27.172Z,0
2018-11-03T04:13:59.270Z,0
2018-11-03T04:14:31.353Z,0
2018-11-03T04:15:03.440Z,0
2018-11-03T04:15:35.521Z,0
2018-11-03T04:16:07.608Z,0
2018-11-03T04:16:39.687Z,0
2018-11-03T04:17:11.762Z,0
2018-11-03T04:17:43.848Z,0
2018-11-03T04:18:15.920Z,0
2018-11-03T04:18:47.995Z,0
2018-11-03T04:19:20.064Z,0
2018-11-03T04:19:52.105Z,0
2018-11-03T04:20:24.194Z,0
2018-11-03T04:20:56.234Z,0
2018-11-03T04:21:28.302Z,0
2018-11-03T04:22:00.373Z,0
2018-11-03T04:22:32.455Z,0
2018-11-03T04:23:04.536Z,0
2018-11-03T04:23:36.614Z,0
2018-11-03T04:24:08.706Z,0
2018-11-03T04:24:40.758Z,0
2018-11-03T04:25:12.832Z,0
2018-11-03T04:25:44.944Z,0
2018-11-03T04:26:17.044Z,0
2018-11-03T04:26:49.104Z,0
2018-11-03T04:27:21.175Z,0
2018-11-03T04:27:53.261Z,0
2018-11-03T04:28:25.317Z,0
2018-11-03T04:28:57.374Z,0
2018-11-03T04:29:29.458Z,0
2018-11-03T04:30:01.556Z,0
2018-11-03T04:30:33.629Z,0
2018-11-03T04:31:05.700Z,0
2018-11-03T04:31:37.758Z,0
2018-11-03T04:32:09.849Z,0
2018-11-03T04:32:41.925Z,0
2018-11-03T04:33:13.983Z,0
2018-11-03T04:33:46.074Z,0
2018-11-03T04:34:18.156Z,0
2018-11-03T04:34:50.228Z,0
2018-11-03T04:35:22.277Z,0
2018-11-03T04:35:54.356Z,0
2018-11-03T04:36:26.433Z,0
2018-11-03T04:36:58.523Z,0
2018-11-03T04:37:30.617Z,0
2018-11-03T04:38:02.700Z,0
2018-11-03T04:38:34.781Z,0
2018-11-03T04:39:06.849Z,0
2018-11-03T04:39:38.917Z,0
2018-11-03T04:40:10.975Z,0
2018-11-03T04:40:43.055Z,0
2018-11-03T04:41:15.160Z,0
2018-11-03T04:41:47.259Z,0
2018-11-03T04:42:19.329Z,0
2018-11-03T04:42:51.414Z,0
2018-11-03T04:43:23.496Z,0
2018-11-03T04:43:55.585Z,0
2018-11-03T04:44:27.663Z,0
2018-11-03T04:44:59.737Z,0
2018-11-03T04:45:31.891Z,0
2018-11-03T04:46:03.908Z,0
2018-11-03T04:46:35.995Z,0
2018-11-03T04:47:08.052Z,0
2018-11-03T04:47:40.129Z,0
2018-11-03T04:48:12.205Z,0
2018-11-03T04:48:44.293Z,0
2018-11-03T04:49:16.361Z,0
2018-11-03T04:49:48.437Z,0
2018-11-03T04:50:20.525Z,0
2018-11-03T04:50:52.610Z,0
2018-11-03T04:51:24.680Z,0
2018-11-03T04:51:56.756Z,0
2018-11-03T04:52:28.824Z,0
2018-11-03T04:53:00.920Z,0
2018-11-03T04:53:33.020Z,0
2018-11-03T04:54:05.085Z,0
2018-11-03T04:54:37.121Z,0
2018-11-03T04:55:09.382Z,0
2018-11-03T04:55:41.493Z,0
2018-11-03T04:56:13.564Z,0
2018-11-03T04:56:45.665Z,0
2018-11-03T04:57:17.751Z,0
2018-11-03T04:57:49.920Z,0
2018-11-03T04:58:22.011Z,0
2018-11-03T04:58:54.091Z,0
2018-11-03T04:59:26.181Z,0
2018-11-03T04:59:58.271Z,0
2018-11-03T05:00:30.352Z,0
2018-11-03T05:01:02.491Z,0
2018-11-03T05:01:34.551Z,0
2018-11-03T05:02:06.605Z,0
2018-11-03T05:02:38.683Z,0
2018-11-03T05:03:10.752Z,0
2018-11-03T05:03:42.820Z,0
2018-11-03T05:04:14.905Z,0
2018-11-03T05:04:46.972Z,0
2018-11-03T05:05:19.066Z,0
2018-11-03T05:05:51.146Z,0
2018-11-03T05:06:23.235Z,0
2018-11-03T05:06:55.332Z,0
2018-11-03T05:07:27.404Z,0
2018-11-03T05:07:59.487Z,0
2018-11-03T05:08:31.563Z,0
2018-11-03T05:09:03.629Z,0
2018-11-03T05:09:35.704Z,0
2018-11-03T05:10:07.775Z,0
2018-11-03T05:10:39.845Z,0
2018-11-03T05:11:11.904Z,0
2018-11-03T05:11:43.986Z,0
2018-11-03T05:12:16.068Z,0
2018-11-03T05:12:48.145Z,0
2018-11-03T05:13:20.231Z,0
2018-11-03T05:13:52.311Z,0
2018-11-03T05:14:24.400Z,0
2018-11-03T05:14:56.490Z,0
2018-11-03T05:15:28.586Z,0
2018-11-03T05:16:00.665Z,0
2018-11-03T05:16:32.751Z,0
2018-11-03T05:17:04.822Z,0
2018-11-03T05:17:36.903Z,0
2018-11-03T05:18:08.988Z,0
2018-11-03T05:18:41.073Z,0
2018-11-03T05:19:13.157Z,0
2018-11-03T05:19:45.239Z,0
2018-11-03T05:20:17.328Z,0
2018-11-03T05:20:49.411Z,0
2018-11-03T05:21:21.563Z,0
2018-11-03T05:21:53.576Z,0
2018-11-03T05:22:25.632Z,0
2018-11-03T05:22:57.721Z,0
2018-11-03T05:23:29.801Z,0
2018-11-03T05:24:01.904Z,0
2018-11-03T05:24:33.962Z,0
2018-11-03T05:25:06.054Z,0
2018-11-03T05:25:38.127Z,0
2018-11-03T05:26:10.225Z,0
2018-11-03T05:26:42.318Z,0
2018-11-03T05:27:14.587Z,0
2018-11-03T05:27:46.641Z,0
2018-11-03T05:28:18.697Z,0
2018-11-03T05:28:50.783Z,0
2018-11-03T05:29:22.867Z,0
2018-11-03T05:29:54.933Z,0
2018-11-03T05:30:27.004Z,0
2018-11-03T05:30:59.146Z,0
2018-11-03T05:31:31.171Z,0
2018-11-03T05:32:03.264Z,0
2018-11-03T05:32:35.366Z,0
2018-11-03T05:33:07.434Z,0
2018-11-03T05:33:39.506Z,0
2018-11-03T05:34:11.582Z,0
2018-11-03T05:34:43.644Z,0
2018-11-03T05:35:15.718Z,0
2018-11-03T05:35:47.821Z,0
2018-11-03T05:36:19.895Z,0
2018-11-03T05:36:51.993Z,0
2018-11-03T05:37:24.054Z,0
2018-11-03T05:37:56.143Z,0
2018-11-03T05:38:28.227Z,0
2018-11-03T05:39:00.323Z,0
2018-11-03T05:39:32.472Z,0
2018-11-03T05:40:04.490Z,0
2018-11-03T05:40:36.601Z,0
2018-11-03T05:41:08.650Z,0
2018-11-03T05:41:40.721Z,0
2018-11-03T05:42:12.784Z,0
2018-11-03T05:42:44.871Z,0
2018-11-03T05:43:16.974Z,0
2018-11-03T05:43:49.041Z,0
2018-11-03T05:44:21.115Z,0
2018-11-03T05:44:53.181Z,0
2018-11-03T05:45:25.260Z,0
2018-11-03T05:45:57.349Z,0
2018-11-03T05:46:29.562Z,0
2018-11-03T05:47:01.592Z,0
2018-11-03T05:47:33.674Z,0
2018-11-03T05:48:05.747Z,0
2018-11-03T05:48:37.808Z,0
2018-11-03T05:49:09.913Z,0
2018-11-03T05:49:41.959Z,0
2018-11-03T05:50:14.043Z,0
2018-11-03T05:50:46.109Z,0
2018-11-03T05:51:18.189Z,0
2018-11-03T05:51:50.267Z,0
2018-11-03T05:52:22.360Z,0
2018-11-03T05:52:54.435Z,0
2018-11-03T05:53:26.503Z,0
2018-11-03T05:53:58.594Z,0
2018-11-03T05:54:30.653Z,0
2018-11-03T05:55:02.751Z,0
2018-11-03T05:55:34.820Z,0
2018-11-03T05:56:06.915Z,0
2018-11-03T05:56:38.979Z,0
2018-11-03T05:57:11.058Z,0
2018-11-03T05:57:43.128Z,0
2018-11-03T05:58:15.208Z,0
2018-11-03T05:58:47.294Z,0
2018-11-03T05:59:19.358Z,4
2018-11-03T05:59:51.459Z,4
2018-11-03T06:00:23.538Z,4
2018-11-03T06:00:55.612Z,4
2018-11-03T06:01:27.686Z,0
2018-11-03T06:01:59.837Z,0
2018-11-03T06:02:31.841Z,4
2018-11-03T06:03:03.897Z,4
2018-11-03T06:03:35.970Z,4
2018-11-03T06:04:08.054Z,4
2018-11-03T06:04:40.139Z,4
2018-11-03T06:05:12.221Z,4
2018-11-03T06:05:44.324Z,4
2018-11-03T06:06:16.403Z,8
2018-11-03T06:06:48.476Z,4
2018-11-03T06:07:20.545Z,8
2018-11-03T06:07:52.617Z,8
2018-11-03T06:08:24.709Z,8
2018-11-03T06:08:56.979Z,12
2018-11-03T06:09:28.874Z,8
2018-11-03T06:10:00.969Z,12
2018-11-03T06:10:33.052Z,12
2018-11-03T06:11:05.122Z,12
2018-11-03T06:11:37.501Z,16
2018-11-03T06:12:09.619Z,16
2018-11-03T06:12:41.697Z,16
2018-11-03T06:13:13.968Z,20
2018-11-03T06:13:46.074Z,20
2018-11-03T06:14:18.144Z,20
2018-11-03T06:14:50.216Z,24
2018-11-03T06:15:22.412Z,24
2018-11-03T06:15:54.380Z,28
2018-11-03T06:16:26.453Z,28
2018-11-03T06:16:58.476Z,32
2018-11-03T06:17:30.564Z,36
2018-11-03T06:18:02.676Z,36
2018-11-03T06:18:34.742Z,40
2018-11-03T06:19:06.815Z,44
2018-11-03T06:19:38.886Z,44
2018-11-03T06:20:10.970Z,48
2018-11-03T06:20:43.048Z,48
2018-11-03T06:21:15.114Z,48
2018-11-03T06:21:47.192Z,52
2018-11-03T06:22:19.279Z,52
2018-11-03T06:22:51.375Z,56
2018-11-03T06:23:23.489Z,60
2018-11-03T06:23:55.527Z,60
2018-11-03T06:24:27.565Z,68
2018-11-03T06:24:59.636Z,72
2018-11-03T06:25:31.760Z,76
2018-11-03T06:26:03.813Z,80
2018-11-03T06:26:35.883Z,84
2018-11-03T06:27:07.943Z,92
2018-11-03T06:27:40.054Z,100
2018-11-03T06:28:12.239Z,104
2018-11-03T06:28:44.175Z,112
2018-11-03T06:29:16.258Z,116
2018-11-03T06:29:48.314Z,120
2018-11-03T06:30:20.394Z,128
2018-11-03T06:30:52.476Z,128
2018-11-03T06:31:24.562Z,136
2018-11-03T06:31:56.639Z,144
2018-11-03T06:32:28.740Z,144
2018-11-03T06:33:00.821Z,152
2018-11-03T06:33:32.916Z,160
2018-11-03T06:34:04.996Z,164
2018-11-03T06:34:37.134Z,168
2018-11-03T06:35:09.321Z,176
2018-11-03T06:35:41.298Z,180
2018-11-03T06:36:13.363Z,188
2018-11-03T06:36:45.453Z,192
2018-11-03T06:37:17.529Z,200
2018-11-03T06:37:49.613Z,204
2018-11-03T06:38:21.680Z,212
2018-11-03T06:38:53.828Z,216
2018-11-03T06:39:25.845Z,224
2018-11-03T06:39:57.941Z,232
2018-11-03T06:40:30.051Z,240
2018-11-03T06:41:02.157Z,248
2018-11-03T06:41:34.259Z,256
2018-11-03T06:42:06.307Z,264
2018-11-03T06:42:38.392Z,272
2018-11-03T06:43:10.479Z,280
2018-11-03T06:43:42.555Z,288
2018-11-03T06:44:14.656Z,296
2018-11-03T06:44:46.753Z,312
2018-11-03T06:45:18.819Z,320
2018-11-03T06:45:50.900Z,328
2018-11-03T06:46:23.132Z,340
2018-11-03T06:46:55.234Z,352
2018-11-03T06:47:27.381Z,364
2018-11-03T06:47:59.403Z,376
2018-11-03T06:48:31.482Z,392
2018-11-03T06:49:03.572Z,400
2018-11-03T06:49:35.662Z,416
2018-11-03T06:50:07.744Z,432
2018-11-03T06:50:39.803Z,444
2018-11-03T06:51:11.866Z,460
2018-11-03T06:51:43.952Z,476
2018-11-03T06:52:16.060Z,488
2018-11-03T06:52:48.097Z,504
2018-11-03T06:53:20.159Z,520
2018-11-03T06:53:52.251Z,528
2018-11-03T06:54:24.330Z,544
2018-11-03T06:54:56.427Z,552
2018-11-03T06:55:28.479Z,568
2018-11-03T06:56:00.556Z,580
2018-11-03T06:56:33.006Z,588
2018-11-03T06:57:05.024Z,600
2018-11-03T06:57:37.115Z,608
2018-11-03T06:58:09.212Z,616
2018-11-03T06:58:41.298Z,624
2018-11-03T06:59:13.352Z,636
2018-11-03T06:59:45.424Z,644
2018-11-03T07:00:17.507Z,652
2018-11-03T07:00:49.603Z,660
2018-11-03T07:01:21.656Z,668
2018-11-03T07:01:53.732Z,676
2018-11-03T07:02:25.804Z,688
2018-11-03T07:02:57.875Z,696
2018-11-03T07:03:29.927Z,700
2018-11-03T07:04:02.000Z,712
2018-11-03T07:04:34.088Z,720
2018-11-03T07:05:06.215Z,724
2018-11-03T07:05:38.254Z,736
2018-11-03T07:06:10.362Z,744
2018-11-03T07:06:42.399Z,756
2018-11-03T07:07:14.457Z,764
2018-11-03T07:07:46.584Z,772
2018-11-03T07:08:18.678Z,780
2018-11-03T07:08:50.735Z,792
2018-11-03T07:09:22.799Z,804
2018-11-03T07:09:54.894Z,820
2018-11-03T07:10:27.336Z,832
2018-11-03T07:10:59.391Z,844
2018-11-03T07:11:31.551Z,856
2018-11-03T07:12:04.426Z,872
2018-11-03T07:12:36.488Z,880
2018-11-03T07:13:08.477Z,892
2018-11-03T07:13:40.601Z,904
2018-11-03T07:14:12.696Z,912
2018-11-03T07:14:44.755Z,924
2018-11-03T07:15:16.830Z,932
2018-11-03T07:15:48.895Z,944
2018-11-03T07:16:20.990Z,952
2018-11-03T07:16:53.100Z,960
2018-11-03T07:17:25.149Z,972
2018-11-03T07:17:57.224Z,980
2018-11-03T07:18:29.310Z,996
2018-11-03T07:19:01.414Z,1004
2018-11-03T07:19:33.499Z,1016
2018-11-03T07:20:05.624Z,1028
2018-11-03T07:20:37.646Z,1036
2018-11-03T07:21:09.721Z,1052
2018-11-03T07:21:41.927Z,1060
2018-11-03T07:22:13.885Z,1068
2018-11-03T07:22:45.958Z,1084
2018-11-03T07:23:18.051Z,1096
2018-11-03T07:23:50.146Z,1108
2018-11-03T07:24:22.239Z,1116
2018-11-03T07:24:54.312Z,1128
2018-11-03T07:25:26.372Z,1140
2018-11-03T07:25:58.458Z,1144
2018-11-03T07:26:30.508Z,1160
2018-11-03T07:27:02.618Z,1168
2018-11-03T07:27:34.695Z,1180
2018-11-03T07:28:06.770Z,1192
2018-11-03T07:28:38.842Z,1204
2018-11-03T07:29:10.903Z,1216
2018-11-03T07:29:43.146Z,1228
2018-11-03T07:30:15.099Z,1236
2018-11-03T07:30:47.190Z,1248
2018-11-03T07:31:19.262Z,1264
2018-11-03T07:31:51.320Z,1276
2018-11-03T07:32:23.373Z,1280
2018-11-03T07:32:55.450Z,1268
2018-11-03T07:33:27.541Z,1256
2018-11-03T07:33:59.617Z,1280
2018-11-03T07:34:31.672Z,1436
2018-11-03T07:35:03.762Z,1816
2018-11-03T07:35:35.859Z,2132
2018-11-03T07:36:07.952Z,2248
2018-11-03T07:36:40.024Z,2112
2018-11-03T07:37:12.080Z,1952
2018-11-03T07:37:44.175Z,1824
2018-11-03T07:38:16.202Z,1872
2018-11-03T07:38:48.285Z,2004
2018-11-03T07:39:20.344Z,2232
2018-11-03T07:39:52.395Z,2352
2018-11-03T07:40:24.459Z,2388
2018-11-03T07:40:56.641Z,2400
2018-11-03T07:41:29.057Z,2412
2018-11-03T07:42:01.319Z,2420
2018-11-03T07:42:33.475Z,2372
2018-11-03T07:43:05.619Z,2324
2018-11-03T07:43:37.691Z,2252
2018-11-03T07:44:09.760Z,2340
2018-11-03T07:44:44.332Z,2388
2018-11-03T07:45:20.137Z,2392
2018-11-03T07:45:52.223Z,2412
2018-11-03T07:46:24.303Z,2372
2018-11-03T07:46:56.391Z,2280